createdAt,value
2018-06-16T00:00:03.353Z,99.90
2018-06-16T00:04:59.835Z,99.90
2018-06-16T00:07:28.216Z,99.90
2018-06-16T00:09:56.553Z,99.90
2018-06-16T00:12:24.929Z,99.90
2018-06-16T00:14:53.310Z,99.90
2018-06-16T00:17:21.661Z,99.90
2018-06-16T00:19:50.075Z,99.90
2018-06-16T00:22:18.439Z,99.90
2018-06-16T00:24:46.918Z,99.90
2018-06-16T00:27:15.245Z,99.90
2018-06-16T00:29:43.567Z,99.90
2018-06-16T00:32:11.929Z,99.90
2018-06-16T00:34:40.260Z,99.90
2018-06-16T00:39:36.893Z,99.90
2018-06-16T00:42:05.216Z,99.90
2018-06-16T00:44:33.555Z,99.90
2018-06-16T00:47:01.883Z,99.90
2018-06-16T00:49:30.193Z,99.90
2018-06-16T00:51:58.573Z,99.90
2018-06-16T00:54:26.969Z,99.90
2018-06-16T00:57:06.673Z,99.90
2018-06-16T00:59:35.026Z,99.90
2018-06-16T01:02:03.356Z,99.90
2018-06-16T01:04:31.665Z,99.90
2018-06-16T01:07:00.035Z,99.90
2018-06-16T01:09:28.465Z,99.90
2018-06-16T01:11:56.777Z,99.90
2018-06-16T01:14:25.083Z,99.90
2018-06-16T01:16:53.425Z,99.90
2018-06-16T01:19:21.770Z,99.90
2018-06-16T01:21:50.115Z,99.90
2018-06-16T01:26:46.425Z,99.90
2018-06-16T01:29:14.774Z,99.90
2018-06-16T01:31:43.086Z,99.90
2018-06-16T01:34:11.360Z,99.90
2018-06-16T01:36:39.650Z,99.90
2018-06-16T01:39:09.206Z,99.90
2018-06-16T01:41:37.996Z,99.90
2018-06-16T01:44:06.316Z,99.90
2018-06-16T01:46:34.629Z,99.90
2018-06-16T01:49:03.037Z,99.90
2018-06-16T01:51:31.388Z,99.90
2018-06-16T01:56:27.868Z,99.90
2018-06-16T01:58:56.193Z,99.90
2018-06-16T02:01:24.529Z,99.90
2018-06-16T02:03:52.856Z,99.90
2018-06-16T02:06:21.202Z,99.90
2018-06-16T02:08:49.504Z,99.90
2018-06-16T02:11:17.794Z,99.90
2018-06-16T02:13:46.128Z,99.90
2018-06-16T02:18:42.551Z,99.90
2018-06-16T02:21:10.877Z,99.90
2018-06-16T02:23:39.216Z,99.90
2018-06-16T02:26:07.588Z,99.90
2018-06-16T02:28:35.928Z,99.90
2018-06-16T02:31:04.330Z,99.90
2018-06-16T02:33:32.636Z,99.90
2018-06-16T02:36:00.955Z,99.90
2018-06-16T02:38:29.273Z,99.90
2018-06-16T02:40:57.601Z,99.90
2018-06-16T02:43:25.918Z,99.90
2018-06-16T02:45:54.190Z,99.90
2018-06-16T02:48:22.505Z,99.90
2018-06-16T02:50:50.810Z,99.90
2018-06-16T02:53:19.137Z,99.90
2018-06-16T02:58:15.506Z,99.90
2018-06-16T03:00:43.809Z,99.90
2018-06-16T03:03:12.135Z,99.90
2018-06-16T03:05:40.513Z,99.90
2018-06-16T03:08:08.824Z,99.90
2018-06-16T03:10:37.134Z,99.90
2018-06-16T03:13:05.529Z,99.90
2018-06-16T03:15:33.843Z,99.90
2018-06-16T03:18:02.274Z,99.90
2018-06-16T03:20:30.569Z,99.90
2018-06-16T03:22:58.877Z,99.90
2018-06-16T03:25:27.357Z,99.90
2018-06-16T03:27:55.671Z,99.90
2018-06-16T03:30:23.949Z,99.90
2018-06-16T03:32:52.390Z,99.90
2018-06-16T03:35:20.733Z,99.90
2018-06-16T03:37:49.038Z,99.90
2018-06-16T03:40:17.366Z,99.90
2018-06-16T03:42:45.693Z,99.90
2018-06-16T03:45:14.038Z,99.90
2018-06-16T03:47:42.424Z,99.90
2018-06-16T03:50:10.719Z,99.90
2018-06-16T03:52:39.246Z,99.90
2018-06-16T03:55:07.589Z,99.90
2018-06-16T03:57:35.929Z,99.90
2018-06-16T04:00:04.413Z,99.90
2018-06-16T04:02:32.761Z,99.90
2018-06-16T04:05:01.117Z,99.90
2018-06-16T04:09:57.468Z,99.90
2018-06-16T04:12:25.767Z,99.90
2018-06-16T04:14:54.084Z,99.90
2018-06-16T04:17:22.417Z,99.90
2018-06-16T04:19:51.710Z,99.90
2018-06-16T04:22:20.390Z,99.90
2018-06-16T04:24:48.688Z,99.90
2018-06-16T04:27:16.981Z,99.90
2018-06-16T04:29:45.307Z,99.90
2018-06-16T04:32:13.714Z,99.90
2018-06-16T04:34:42.069Z,99.90
2018-06-16T04:37:10.333Z,99.90
2018-06-16T04:39:38.620Z,99.90
2018-06-16T04:42:06.933Z,99.90
2018-06-16T04:44:35.261Z,99.90
2018-06-16T04:47:04.093Z,99.90
2018-06-16T04:49:32.404Z,99.90
2018-06-16T04:52:00.746Z,99.90
2018-06-16T04:54:29.028Z,99.90
2018-06-16T04:56:57.330Z,99.90
2018-06-16T04:59:25.594Z,99.90
2018-06-16T05:01:53.903Z,99.90
2018-06-16T05:04:22.197Z,99.90
2018-06-16T05:06:50.529Z,99.90
2018-06-16T05:09:18.828Z,99.90
2018-06-16T05:11:47.138Z,99.90
2018-06-16T05:14:15.423Z,99.90
2018-06-16T05:19:11.746Z,99.90
2018-06-16T05:21:40.066Z,99.90
2018-06-16T05:24:08.360Z,99.90
2018-06-16T05:26:36.666Z,99.90
2018-06-16T05:29:05.025Z,99.90
2018-06-16T05:31:33.309Z,99.90
2018-06-16T05:34:01.603Z,99.90
2018-06-16T05:36:29.911Z,99.90
2018-06-16T05:38:58.221Z,99.90
2018-06-16T05:41:26.557Z,99.90
2018-06-16T05:43:54.877Z,99.90
2018-06-16T05:46:23.241Z,99.90
2018-06-16T05:48:51.529Z,99.90
2018-06-16T05:51:20.023Z,99.90
2018-06-16T05:53:48.313Z,99.90
2018-06-16T05:56:17.221Z,99.90
2018-06-16T05:58:45.509Z,99.90
2018-06-16T06:01:14.649Z,99.90
2018-06-16T06:03:43.107Z,99.90
2018-06-16T06:06:11.442Z,99.90
2018-06-16T06:08:39.720Z,99.90
2018-06-16T06:11:08.058Z,99.90
2018-06-16T06:13:36.346Z,99.90
2018-06-16T06:16:04.649Z,99.90
2018-06-16T06:18:32.945Z,99.90
2018-06-16T06:21:01.256Z,99.90
2018-06-16T06:23:29.578Z,99.90
2018-06-16T06:25:57.879Z,99.90
2018-06-16T06:28:26.172Z,99.90
2018-06-16T06:30:54.502Z,99.90
2018-06-16T06:33:22.793Z,99.90
2018-06-16T06:35:51.116Z,99.90
2018-06-16T06:40:47.445Z,99.90
2018-06-16T06:43:15.771Z,99.90
2018-06-16T06:45:44.061Z,99.90
2018-06-16T06:48:12.433Z,99.90
2018-06-16T06:50:40.914Z,99.90
2018-06-16T06:53:09.251Z,99.90
2018-06-16T06:55:37.728Z,99.90
2018-06-16T06:58:06.114Z,99.90
2018-06-16T07:00:35.114Z,99.90
2018-06-16T07:03:03.458Z,99.90
2018-06-16T07:05:31.848Z,99.90
2018-06-16T07:08:00.197Z,99.90
2018-06-16T07:10:28.512Z,99.90
2018-06-16T07:12:56.841Z,99.90
2018-06-16T07:15:25.173Z,99.90
2018-06-16T07:17:53.509Z,99.90
2018-06-16T07:20:21.838Z,99.90
2018-06-16T07:22:50.138Z,99.90
2018-06-16T07:25:18.455Z,99.80
2018-06-16T07:27:46.793Z,99.10
2018-06-16T07:30:15.139Z,99.50
2018-06-16T07:32:43.481Z,99.00
2018-06-16T07:35:11.810Z,98.50
2018-06-16T07:37:40.151Z,97.30
2018-06-16T07:40:08.449Z,97.70
2018-06-16T07:42:36.806Z,97.70
2018-06-16T07:45:05.696Z,98.10
2018-06-16T07:47:34.014Z,98.50
2018-06-16T07:50:02.425Z,98.40
2018-06-16T07:52:30.816Z,96.80
2018-06-16T07:54:59.370Z,96.10
2018-06-16T07:57:27.691Z,96.00
2018-06-16T07:59:55.999Z,95.90
2018-06-16T08:02:24.368Z,96.60
2018-06-16T08:04:52.684Z,95.40
2018-06-16T08:07:21.196Z,94.50
2018-06-16T08:09:49.525Z,94.60
2018-06-16T08:12:17.843Z,93.00
2018-06-16T08:14:46.222Z,92.00
2018-06-16T08:17:14.531Z,93.00
2018-06-16T08:19:42.931Z,93.40
2018-06-16T08:22:11.245Z,93.30
2018-06-16T08:24:39.595Z,93.10
2018-06-16T08:27:07.963Z,92.60
2018-06-16T08:29:36.318Z,92.30
2018-06-16T08:32:04.720Z,91.80
2018-06-16T08:34:33.038Z,91.70
2018-06-16T08:37:01.343Z,90.00
2018-06-16T08:39:29.696Z,90.50
2018-06-16T08:41:58.099Z,91.10
2018-06-16T08:44:26.409Z,91.40
2018-06-16T08:46:54.733Z,91.10
2018-06-16T08:49:23.202Z,90.80
2018-06-16T08:51:51.605Z,90.90
2018-06-16T08:54:19.898Z,90.00
2018-06-16T08:56:48.226Z,90.00
2018-06-16T08:59:16.569Z,88.20
2018-06-16T09:01:44.881Z,90.10
2018-06-16T09:04:13.204Z,90.30
2018-06-16T09:06:41.502Z,86.90
2018-06-16T09:09:10.486Z,87.10
2018-06-16T09:11:39.018Z,85.70
2018-06-16T09:14:07.633Z,86.10
2018-06-16T09:16:37.311Z,82.40
2018-06-16T09:19:05.825Z,81.50
2018-06-16T09:21:34.152Z,82.00
2018-06-16T09:24:02.493Z,82.30
2018-06-16T09:26:30.828Z,81.90
2018-06-16T09:29:00.565Z,82.60
2018-06-16T09:31:29.046Z,79.60
2018-06-16T09:33:58.670Z,76.40
2018-06-16T09:36:27.083Z,76.30
2018-06-16T09:38:55.493Z,77.60
2018-06-16T09:41:24.301Z,78.00
2018-06-16T09:43:52.609Z,78.70
2018-06-16T09:46:21.008Z,77.90
2018-06-16T09:48:49.333Z,75.70
2018-06-16T09:51:17.630Z,75.50
2018-06-16T09:53:45.939Z,75.50
2018-06-16T09:56:14.237Z,74.50
2018-06-16T09:58:42.581Z,75.60
2018-06-16T10:01:10.914Z,76.40
2018-06-16T10:03:39.218Z,76.20
2018-06-16T10:06:07.566Z,77.30
2018-06-16T10:08:35.907Z,77.30
2018-06-16T10:11:04.293Z,76.50
2018-06-16T10:13:32.946Z,74.10
2018-06-16T10:16:01.388Z,72.90
2018-06-16T10:18:29.695Z,72.40
2018-06-16T10:20:57.995Z,72.70
2018-06-16T10:23:26.474Z,72.10
2018-06-16T10:25:54.780Z,72.90
2018-06-16T10:28:23.872Z,74.00
2018-06-16T10:30:52.200Z,71.40
2018-06-16T10:33:21.470Z,68.70
2018-06-16T10:35:49.938Z,68.90
2018-06-16T10:38:18.879Z,69.30
2018-06-16T10:40:47.262Z,69.20
2018-06-16T10:43:15.785Z,71.00
2018-06-16T10:45:44.312Z,72.20
2018-06-16T10:48:12.811Z,72.60
2018-06-16T10:50:41.128Z,69.60
2018-06-16T10:53:09.759Z,73.00
2018-06-16T10:55:38.201Z,72.00
2018-06-16T10:58:06.658Z,72.90
2018-06-16T11:00:41.546Z,72.30
2018-06-16T11:03:09.849Z,73.70
2018-06-16T11:05:38.288Z,73.60
2018-06-16T11:08:06.793Z,71.90
2018-06-16T11:10:35.237Z,70.00
2018-06-16T11:13:03.666Z,70.70
2018-06-16T11:15:32.082Z,68.80
2018-06-16T11:18:00.429Z,66.30
2018-06-16T11:20:28.798Z,65.60
2018-06-16T11:22:57.141Z,65.60
2018-06-16T11:25:25.495Z,66.80
2018-06-16T11:27:53.890Z,67.00
2018-06-16T11:30:22.254Z,69.30
2018-06-16T11:32:50.569Z,69.80
2018-06-16T11:35:18.895Z,68.50
2018-06-16T11:37:47.309Z,67.90
2018-06-16T11:40:15.828Z,69.30
2018-06-16T11:42:44.162Z,68.30
2018-06-16T11:45:12.532Z,69.00
2018-06-16T11:47:40.845Z,68.00
2018-06-16T11:50:09.141Z,66.50
2018-06-16T11:52:37.477Z,66.10
2018-06-16T11:55:05.864Z,65.90
2018-06-16T11:57:34.296Z,64.90
2018-06-16T12:00:02.581Z,66.90
2018-06-16T12:02:30.902Z,65.40
2018-06-16T12:04:59.210Z,64.10
2018-06-16T12:07:27.687Z,65.10
2018-06-16T12:09:56.037Z,63.80
2018-06-16T12:12:24.325Z,64.20
2018-06-16T12:14:52.878Z,64.70
2018-06-16T12:17:21.265Z,64.40
2018-06-16T12:19:49.754Z,63.60
2018-06-16T12:22:18.221Z,63.30
2018-06-16T12:24:46.600Z,62.20
2018-06-16T12:27:14.917Z,60.50
2018-06-16T12:29:43.310Z,60.50
2018-06-16T12:32:11.562Z,61.30
2018-06-16T12:37:08.213Z,61.90
2018-06-16T12:39:36.505Z,61.60
2018-06-16T12:42:04.969Z,60.50
2018-06-16T12:44:33.297Z,57.90
2018-06-16T12:47:01.612Z,59.50
2018-06-16T12:49:29.913Z,58.30
2018-06-16T12:51:58.245Z,58.90
2018-06-16T12:54:26.561Z,58.90
2018-06-16T12:56:54.873Z,61.90
2018-06-16T12:59:23.149Z,63.20
2018-06-16T13:01:51.557Z,65.90
2018-06-16T13:04:19.853Z,67.40
2018-06-16T13:06:48.193Z,67.50
2018-06-16T13:09:16.653Z,67.70
2018-06-16T13:11:45.014Z,68.00
2018-06-16T13:14:13.410Z,67.30
2018-06-16T13:16:41.769Z,67.50
2018-06-16T13:19:10.084Z,69.10
2018-06-16T13:21:38.440Z,70.00
2018-06-16T13:26:34.836Z,67.60
2018-06-16T13:29:03.149Z,68.30
2018-06-16T13:31:31.437Z,68.90
2018-06-16T13:33:59.757Z,67.60
2018-06-16T13:36:28.165Z,68.30
2018-06-16T13:38:56.508Z,67.30
2018-06-16T13:41:24.943Z,66.60
2018-06-16T13:43:53.234Z,67.80
2018-06-16T13:46:21.519Z,71.70
2018-06-16T13:48:49.926Z,73.60
2018-06-16T13:51:18.265Z,73.80
2018-06-16T13:53:46.655Z,74.00
2018-06-16T13:56:15.009Z,73.30
2018-06-16T13:58:43.939Z,72.40
2018-06-16T14:01:12.694Z,73.60
2018-06-16T14:03:40.980Z,72.40
2018-06-16T14:06:09.344Z,72.10
2018-06-16T14:08:37.804Z,72.40
2018-06-16T14:11:06.364Z,71.80
2018-06-16T14:13:35.221Z,71.60
2018-06-16T14:16:03.725Z,70.60
2018-06-16T14:18:31.985Z,69.40
2018-06-16T14:21:00.480Z,64.70
2018-06-16T14:23:28.852Z,64.30
2018-06-16T14:25:57.208Z,65.90
2018-06-16T14:28:25.678Z,66.50
2018-06-16T14:30:54.085Z,66.10
2018-06-16T14:33:22.537Z,64.40
2018-06-16T14:35:50.970Z,64.00
2018-06-16T14:38:19.370Z,63.70
2018-06-16T14:40:47.786Z,65.20
2018-06-16T14:43:16.181Z,66.60
2018-06-16T14:45:44.585Z,65.90
2018-06-16T14:48:13.215Z,65.00
2018-06-16T14:50:41.584Z,64.40
2018-06-16T14:53:11.544Z,60.90
2018-06-16T14:55:39.857Z,58.10
2018-06-16T14:58:09.858Z,55.20
2018-06-16T15:00:38.185Z,53.30
2018-06-16T15:03:06.640Z,52.80
2018-06-16T15:05:35.081Z,54.60
2018-06-16T15:08:03.387Z,54.60
2018-06-16T15:10:31.856Z,56.10
2018-06-16T15:13:00.121Z,54.60
2018-06-16T15:15:28.518Z,55.20
2018-06-16T15:17:56.881Z,55.70
2018-06-16T15:20:25.214Z,57.50
2018-06-16T15:22:53.537Z,57.60
2018-06-16T15:25:21.853Z,56.90
2018-06-16T15:27:50.372Z,55.80
2018-06-16T15:30:18.931Z,53.70
2018-06-16T15:32:47.266Z,53.40
2018-06-16T15:35:16.687Z,53.60
2018-06-16T15:37:44.997Z,53.90
2018-06-16T15:40:13.431Z,53.90
2018-06-16T15:42:41.777Z,52.70
2018-06-16T15:45:10.153Z,54.50
2018-06-16T15:47:38.663Z,57.50
2018-06-16T15:50:07.126Z,57.90
2018-06-16T15:52:35.485Z,58.30
2018-06-16T15:55:04.007Z,60.10
2018-06-16T15:57:32.290Z,61.30
2018-06-16T16:00:00.637Z,64.70
2018-06-16T16:02:29.001Z,67.10
2018-06-16T16:04:57.305Z,69.50
2018-06-16T16:07:31.757Z,69.80
2018-06-16T16:10:00.687Z,69.20
2018-06-16T16:12:39.191Z,69.00
2018-06-16T16:15:08.232Z,69.10
2018-06-16T16:17:38.389Z,73.10
2018-06-16T16:20:12.226Z,82.70
2018-06-16T16:22:43.542Z,91.20
2018-06-16T16:25:12.548Z,97.70
2018-06-16T16:27:41.207Z,99.90
2018-06-16T16:30:10.060Z,99.90
2018-06-16T16:32:53.488Z,99.90
2018-06-16T16:35:49.377Z,99.90
2018-06-16T16:41:20.731Z,99.90
2018-06-16T16:43:49.130Z,99.90
2018-06-16T16:46:17.672Z,99.90
2018-06-16T16:48:46.120Z,99.90
2018-06-16T16:51:14.735Z,99.90
2018-06-16T16:53:43.173Z,99.90
2018-06-16T16:56:11.998Z,99.90
2018-06-16T16:58:40.601Z,99.90
2018-06-16T17:01:10.373Z,99.90
2018-06-16T17:03:39.332Z,99.90
2018-06-16T17:45:42.808Z,99.90
2018-06-16T17:48:11.434Z,99.90
2018-06-16T17:50:41.016Z,99.90
2018-06-16T17:53:09.817Z,99.90
2018-06-16T17:55:38.325Z,99.90
2018-06-16T17:58:06.878Z,99.90
2018-06-16T18:00:35.265Z,99.90
2018-06-16T18:03:03.805Z,99.90
2018-06-16T18:05:32.368Z,99.90
2018-06-16T18:08:01.109Z,99.90
2018-06-16T18:10:29.463Z,99.90
2018-06-16T18:12:58.240Z,99.90
2018-06-16T18:15:26.822Z,99.90
2018-06-16T18:17:55.150Z,99.90
2018-06-16T18:20:23.595Z,99.90
2018-06-16T18:22:51.940Z,99.90
2018-06-16T18:25:20.827Z,99.90
2018-06-16T18:27:50.046Z,99.90
2018-06-16T18:30:18.861Z,99.90
2018-06-16T18:32:47.223Z,99.90
2018-06-16T18:35:16.799Z,99.90
2018-06-16T18:37:45.529Z,99.90
2018-06-16T18:40:14.277Z,99.90
2018-06-16T18:42:44.161Z,99.90
2018-06-16T18:45:14.080Z,99.90
2018-06-16T18:47:43.362Z,99.90
2018-06-16T18:50:12.422Z,99.90
2018-06-16T18:52:43.649Z,99.90
2018-06-16T18:57:49.501Z,99.90
2018-06-16T19:08:09.352Z,99.90
2018-06-16T19:10:40.691Z,99.90
2018-06-16T19:13:24.056Z,99.90
2018-06-16T19:16:06.655Z,99.90
2018-06-16T19:18:41.547Z,99.90
2018-06-16T19:21:16.122Z,99.90
2018-06-16T19:23:46.070Z,99.90
2018-06-16T19:26:23.353Z,99.90
2018-06-16T19:28:53.511Z,99.90
2018-06-16T19:31:23.597Z,99.90
2018-06-16T19:33:58.661Z,99.90
2018-06-16T19:36:29.065Z,99.90
2018-06-16T19:39:01.061Z,99.90
2018-06-16T19:41:36.712Z,99.90
2018-06-16T19:44:09.868Z,99.90
2018-06-16T19:46:39.635Z,99.90
2018-06-16T19:49:14.509Z,99.90
2018-06-16T19:51:46.131Z,99.90
2018-06-16T19:54:17.974Z,99.90
2018-06-16T19:56:53.988Z,99.90
2018-06-16T19:59:23.485Z,99.90
2018-06-16T20:02:02.149Z,99.90
2018-06-16T20:04:33.205Z,99.90
2018-06-16T20:09:41.501Z,99.90
2018-06-16T20:12:10.166Z,99.90
2018-06-16T20:14:38.874Z,99.90
2018-06-16T20:17:07.476Z,99.90
2018-06-16T20:19:41.844Z,99.90
2018-06-16T20:22:14.465Z,99.90
2018-06-16T20:24:43.466Z,99.90
2018-06-16T20:27:14.090Z,99.90
2018-06-16T20:29:44.645Z,99.90
2018-06-16T20:34:50.768Z,99.90
2018-06-16T20:37:23.005Z,99.90
2018-06-16T20:39:54.847Z,99.90
2018-06-16T20:42:24.133Z,99.90
2018-06-16T20:44:52.852Z,99.90
2018-06-16T20:47:21.309Z,99.90
2018-06-16T20:49:50.121Z,99.90
2018-06-16T20:52:18.950Z,99.90
2018-06-16T20:54:50.522Z,99.90
2018-06-16T20:57:20.280Z,99.90
2018-06-16T20:59:49.015Z,99.90
2018-06-16T21:02:19.656Z,99.90
2018-06-16T21:04:53.452Z,99.90
2018-06-16T21:07:22.859Z,99.90
2018-06-16T21:09:52.583Z,99.90
2018-06-16T21:12:22.287Z,99.90
2018-06-16T21:14:59.874Z,99.90
2018-06-16T21:17:35.866Z,99.90
2018-06-16T21:20:09.845Z,99.90
2018-06-16T21:22:39.545Z,99.90
2018-06-16T21:25:09.015Z,99.90
2018-06-16T21:27:39.376Z,99.90
2018-06-16T21:30:08.841Z,99.90
2018-06-16T21:32:38.838Z,99.90
2018-06-16T21:35:08.453Z,99.90
2018-06-16T21:37:38.247Z,99.90
2018-06-16T21:40:10.862Z,99.90
2018-06-16T21:42:39.821Z,99.90
2018-06-16T21:45:08.370Z,99.90
2018-06-16T21:47:43.009Z,99.90
2018-06-16T21:50:11.874Z,99.90
2018-06-16T22:04:16.115Z,99.90
2018-06-16T22:06:45.837Z,99.90
2018-06-16T22:09:14.377Z,99.90
2018-06-16T22:11:42.798Z,99.90
2018-06-16T22:14:11.130Z,99.90
2018-06-16T22:16:39.463Z,99.90
2018-06-16T22:19:07.809Z,99.90
2018-06-16T22:21:36.128Z,99.90
2018-06-16T22:24:04.545Z,99.90
2018-06-16T22:26:32.826Z,99.90
2018-06-16T22:29:01.205Z,99.90
2018-06-16T22:31:29.541Z,99.90
2018-06-16T22:33:57.871Z,99.90
2018-06-16T22:36:26.210Z,99.90
2018-06-16T22:38:54.513Z,99.90
2018-06-16T22:41:22.813Z,99.90
2018-06-16T22:43:51.096Z,99.90
2018-06-16T22:46:19.434Z,99.90
2018-06-16T22:48:47.812Z,99.90
2018-06-16T22:51:16.121Z,99.90
2018-06-16T22:53:44.433Z,99.90
2018-06-16T22:56:12.792Z,99.90
2018-06-16T22:58:41.106Z,99.90
2018-06-16T23:01:09.393Z,99.90
2018-06-16T23:03:37.713Z,99.90
2018-06-16T23:06:06.069Z,99.90
2018-06-16T23:08:34.377Z,99.90
2018-06-16T23:11:02.713Z,99.90
2018-06-16T23:13:31.015Z,99.90
2018-06-16T23:15:59.381Z,99.90
2018-06-16T23:18:27.677Z,99.90
2018-06-16T23:20:56.034Z,99.90
2018-06-16T23:23:24.355Z,99.90
2018-06-16T23:25:52.685Z,99.90
2018-06-16T23:28:21.001Z,99.90
2018-06-16T23:30:49.333Z,99.90
2018-06-16T23:33:17.621Z,99.90
2018-06-16T23:35:45.930Z,99.90
2018-06-16T23:38:14.288Z,99.90
2018-06-16T23:40:42.857Z,99.90
2018-06-16T23:43:11.233Z,99.90
2018-06-16T23:45:39.552Z,99.90
2018-06-16T23:48:07.889Z,99.90
2018-06-16T23:50:36.165Z,99.90
2018-06-16T23:53:04.469Z,99.90
2018-06-16T23:55:32.777Z,99.90
2018-06-16T23:58:01.093Z,99.90
